Yeager Airport
KCRW : now visible

Airfield :











YOU CAN JOIN US ON...

 
LOGIN :

Register | Disclaimer

   EN    FR    IT 

 









Legend :    VFR   Marginal VFR   IFR   Intensive IFR   Very Intensive IFR
Visi :
Ceiling :
>= 8 km
>= 3000ft
5 to 8 km
1000 to 3000 ft
1500m to 5 km
500 to 1000 ft
800 to 1500m
200 to 500 ft
< 800m
< 200 ft
Symbols :   Thunderstorms  Fog  Heavy snow  Heavy precipitations  Wind > 20 kt






- Airport Elevation : 981 ft
- IATA code : CRW


KCRW - Yeager

CURRENT METAR :
  • 171754Z COR 25014G19KT 1SM -SN BR FEW008 OVC013 M03/M05 A2967 RMK AO2 SLP056 4/007 P0001 60001 T10331050 11017 21033 51015

EXPIRED METARs :
  • 171735Z 26011KT 4SM -SN BR BKN013 OVC018 M03/M05 A2966 RMK AO2 P0000 T10331050
  • 171654Z 26008KT 4SM -SN BKN017 OVC032 M03/M06 A2967 RMK AO2 SNB17 SLP054 P0000 T10281056
  • 171618Z 24012G17KT 5SM -SN BKN017 OVC032 M03/M06 A2967 RMK AO2 SNB17 P0000 T10331061
  • 171554Z 25011G16KT 10SM OVC023 M03/M06 A2966 RMK AO2 SLP051 T10331061

TAF KCRW
Valid from the 17 at 18:00 until the 18 at 18:00 UTC


171734Z 1718/1818 27008G17KT 5SM -SHSN OVC018
TEMPO 1718/1719 2SM -SHSN
FM180400 26008G17KT P6SM OVC020
FM180800 26007KT P6SM BKN018
FM181700 23006KT P6SM SCT030
KZID FIR / North America



MET'MAP, your aeronautical weather chart ! - Copyright ORBIFLY December 2007 - Disclaimer

ORBIFLY MET'MAP TEAM :

Programming & Development : Alexandra Zaïnal
Concept & original design : Baudouin d'Aumeries
Assistance for programming : Marc-Olivier Méhu
Technical & hardware support : Manuel Goepfert

Contact : metmap@orbifly.com




SOURCES & CREDITS :

   NOAA       Earth
Advisory